sensor_id;sensor_type;location;lat;lon;timestamp;P1;durP1;ratioP1;P2;durP2;ratioP2
17662;SDS011;8950;56.892;15.090;2023-04-07T00:01:28;2.40;;;1.60;;
17662;SDS011;8950;56.892;15.090;2023-04-07T00:03:55;2.58;;;1.52;;
17662;SDS011;8950;56.892;15.090;2023-04-07T00:06:21;1.83;;;1.70;;
17662;SDS011;8950;56.892;15.090;2023-04-07T00:08:48;1.98;;;1.42;;
17662;SDS011;8950;56.892;15.090;2023-04-07T00:11:14;1.60;;;1.50;;
17662;SDS011;8950;56.892;15.090;2023-04-07T00:13:41;2.78;;;1.60;;
17662;SDS011;8950;56.892;15.090;2023-04-07T00:16:09;1.70;;;1.60;;
17662;SDS011;8950;56.892;15.090;2023-04-07T00:18:35;1.63;;;1.50;;
17662;SDS011;8950;56.892;15.090;2023-04-07T00:21:01;1.73;;;1.52;;
17662;SDS011;8950;56.892;15.090;2023-04-07T00:23:28;1.90;;;1.70;;
17662;SDS011;8950;56.892;15.090;2023-04-07T00:25:55;1.73;;;1.63;;
17662;SDS011;8950;56.892;15.090;2023-04-07T00:28:22;3.10;;;1.80;;
17662;SDS011;8950;56.892;15.090;2023-04-07T00:30:48;2.80;;;2.03;;
17662;SDS011;8950;56.892;15.090;2023-04-07T00:33:16;3.40;;;1.80;;
17662;SDS011;8950;56.892;15.090;2023-04-07T00:35:42;3.42;;;2.08;;
17662;SDS011;8950;56.892;15.090;2023-04-07T00:38:08;2.00;;;1.90;;
17662;SDS011;8950;56.892;15.090;2023-04-07T00:40:35;2.58;;;2.20;;
17662;SDS011;8950;56.892;15.090;2023-04-07T00:43:01;2.88;;;2.10;;
17662;SDS011;8950;56.892;15.090;2023-04-07T00:45:28;2.42;;;2.20;;
17662;SDS011;8950;56.892;15.090;2023-04-07T00:47:55;3.90;;;2.10;;
17662;SDS011;8950;56.892;15.090;2023-04-07T00:50:23;3.00;;;2.20;;
17662;SDS011;8950;56.892;15.090;2023-04-07T00:52:49;3.25;;;2.10;;
17662;SDS011;8950;56.892;15.090;2023-04-07T00:55:16;2.42;;;2.22;;
17662;SDS011;8950;56.892;15.090;2023-04-07T00:57:42;2.58;;;2.10;;
17662;SDS011;8950;56.892;15.090;2023-04-07T01:00:11;2.47;;;2.10;;
17662;SDS011;8950;56.892;15.090;2023-04-07T01:02:39;2.10;;;1.88;;
17662;SDS011;8950;56.892;15.090;2023-04-07T01:05:08;2.05;;;1.85;;
17662;SDS011;8950;56.892;15.090;2023-04-07T01:07:46;2.00;;;1.80;;
17662;SDS011;8950;56.892;15.090;2023-04-07T01:10:15;2.63;;;2.20;;
17662;SDS011;8950;56.892;15.090;2023-04-07T01:12:43;2.33;;;1.90;;
17662;SDS011;8950;56.892;15.090;2023-04-07T01:15:12;1.70;;;1.60;;
17662;SDS011;8950;56.892;15.090;2023-04-07T01:17:41;1.95;;;1.70;;
17662;SDS011;8950;56.892;15.090;2023-04-07T01:20:09;1.90;;;1.80;;
17662;SDS011;8950;56.892;15.090;2023-04-07T01:22:39;4.50;;;2.05;;
17662;SDS011;8950;56.892;15.090;2023-04-07T01:27:53;1.77;;;1.67;;
17662;SDS011;8950;56.892;15.090;2023-04-07T01:30:24;1.85;;;1.75;;
17662;SDS011;8950;56.892;15.090;2023-04-07T01:32:52;2.22;;;1.90;;
17662;SDS011;8950;56.892;15.090;2023-04-07T01:35:20;1.83;;;1.73;;
17662;SDS011;8950;56.892;15.090;2023-04-07T01:37:47;1.80;;;1.70;;
17662;SDS011;8950;56.892;15.090;2023-04-07T01:40:14;2.20;;;1.98;;
17662;SDS011;8950;56.892;15.090;2023-04-07T01:42:42;1.90;;;1.80;;
17662;SDS011;8950;56.892;15.090;2023-04-07T01:45:09;2.10;;;1.90;;
17662;SDS011;8950;56.892;15.090;2023-04-07T01:47:37;1.90;;;1.80;;
17662;SDS011;8950;56.892;15.090;2023-04-07T01:50:04;2.10;;;2.00;;
17662;SDS011;8950;56.892;15.090;2023-04-07T01:52:33;3.13;;;1.80;;
17662;SDS011;8950;56.892;15.090;2023-04-07T01:55:00;2.10;;;2.00;;
17662;SDS011;8950;56.892;15.090;2023-04-07T01:57:26;2.22;;;2.03;;
17662;SDS011;8950;56.892;15.090;2023-04-07T01:59:53;2.22;;;2.05;;
17662;SDS011;8950;56.892;15.090;2023-04-07T02:02:19;2.00;;;1.80;;
17662;SDS011;8950;56.892;15.090;2023-04-07T02:04:49;2.42;;;1.88;;
17662;SDS011;8950;56.892;15.090;2023-04-07T02:07:18;2.08;;;1.98;;
17662;SDS011;8950;56.892;15.090;2023-04-07T02:09:46;2.03;;;1.90;;
17662;SDS011;8950;56.892;15.090;2023-04-07T02:12:13;2.05;;;1.85;;
17662;SDS011;8950;56.892;15.090;2023-04-07T02:14:40;2.72;;;2.03;;
17662;SDS011;8950;56.892;15.090;2023-04-07T02:17:07;1.88;;;1.77;;
17662;SDS011;8950;56.892;15.090;2023-04-07T02:19:34;3.35;;;2.20;;
17662;SDS011;8950;56.892;15.090;2023-04-07T02:22:03;2.05;;;1.92;;
17662;SDS011;8950;56.892;15.090;2023-04-07T02:24:30;2.20;;;2.08;;
17662;SDS011;8950;56.892;15.090;2023-04-07T02:26:56;3.00;;;2.03;;
17662;SDS011;8950;56.892;15.090;2023-04-07T02:29:25;2.10;;;1.90;;
17662;SDS011;8950;56.892;15.090;2023-04-07T02:31:51;2.33;;;2.15;;
17662;SDS011;8950;56.892;15.090;2023-04-07T02:34:17;2.60;;;2.40;;
17662;SDS011;8950;56.892;15.090;2023-04-07T02:36:44;2.60;;;2.40;;
17662;SDS011;8950;56.892;15.090;2023-04-07T02:39:12;2.30;;;2.10;;
17662;SDS011;8950;56.892;15.090;2023-04-07T02:41:38;3.10;;;2.80;;
17662;SDS011;8950;56.892;15.090;2023-04-07T02:44:05;3.20;;;2.90;;
17662;SDS011;8950;56.892;15.090;2023-04-07T02:46:31;3.60;;;3.30;;
17662;SDS011;8950;56.892;15.090;2023-04-07T02:48:58;3.25;;;2.95;;
17662;SDS011;8950;56.892;15.090;2023-04-07T02:51:24;3.65;;;3.15;;
17662;SDS011;8950;56.892;15.090;2023-04-07T02:53:51;3.90;;;3.55;;
17662;SDS011;8950;56.892;15.090;2023-04-07T02:56:18;3.45;;;3.15;;
17662;SDS011;8950;56.892;15.090;2023-04-07T02:58:45;3.05;;;2.85;;
17662;SDS011;8950;56.892;15.090;2023-04-07T03:01:11;3.22;;;2.92;;
17662;SDS011;8950;56.892;15.090;2023-04-07T03:03:38;2.58;;;2.38;;
17662;SDS011;8950;56.892;15.090;2023-04-07T03:06:06;2.85;;;2.65;;
17662;SDS011;8950;56.892;15.090;2023-04-07T03:08:32;3.35;;;3.05;;
17662;SDS011;8950;56.892;15.090;2023-04-07T03:10:59;2.75;;;2.55;;
17662;SDS011;8950;56.892;15.090;2023-04-07T03:13:26;2.80;;;2.60;;
17662;SDS011;8950;56.892;15.090;2023-04-07T03:15:54;2.80;;;2.60;;
17662;SDS011;8950;56.892;15.090;2023-04-07T03:18:21;2.78;;;2.55;;
17662;SDS011;8950;56.892;15.090;2023-04-07T03:20:47;2.55;;;2.35;;
17662;SDS011;8950;56.892;15.090;2023-04-07T03:23:14;2.50;;;2.30;;
17662;SDS011;8950;56.892;15.090;2023-04-07T03:25:41;2.70;;;2.50;;
17662;SDS011;8950;56.892;15.090;2023-04-07T03:28:07;3.15;;;2.38;;
17662;SDS011;8950;56.892;15.090;2023-04-07T03:30:35;2.63;;;2.42;;
17662;SDS011;8950;56.892;15.090;2023-04-07T03:33:02;2.40;;;2.20;;
17662;SDS011;8950;56.892;15.090;2023-04-07T03:35:28;2.17;;;1.98;;
17662;SDS011;8950;56.892;15.090;2023-04-07T03:37:55;2.65;;;2.45;;
17662;SDS011;8950;56.892;15.090;2023-04-07T03:40:21;2.47;;;2.28;;
17662;SDS011;8950;56.892;15.090;2023-04-07T03:42:48;2.20;;;2.00;;
17662;SDS011;8950;56.892;15.090;2023-04-07T03:45:14;2.45;;;2.25;;
17662;SDS011;8950;56.892;15.090;2023-04-07T03:47:42;2.10;;;2.00;;
17662;SDS011;8950;56.892;15.090;2023-04-07T03:50:09;2.90;;;2.38;;
17662;SDS011;8950;56.892;15.090;2023-04-07T03:52:35;2.35;;;2.10;;
17662;SDS011;8950;56.892;15.090;2023-04-07T03:55:02;2.10;;;2.00;;
17662;SDS011;8950;56.892;15.090;2023-04-07T03:57:28;2.58;;;2.38;;
17662;SDS011;8950;56.892;15.090;2023-04-07T03:59:55;2.28;;;2.08;;
17662;SDS011;8950;56.892;15.090;2023-04-07T04:02:21;2.80;;;2.60;;
17662;SDS011;8950;56.892;15.090;2023-04-07T04:04:49;2.22;;;2.10;;
17662;SDS011;8950;56.892;15.090;2023-04-07T04:07:16;2.60;;;2.40;;
17662;SDS011;8950;56.892;15.090;2023-04-07T04:09:42;2.55;;;2.35;;
17662;SDS011;8950;56.892;15.090;2023-04-07T04:12:08;2.30;;;2.15;;
17662;SDS011;8950;56.892;15.090;2023-04-07T04:14:35;2.70;;;2.50;;
17662;SDS011;8950;56.892;15.090;2023-04-07T04:17:01;2.90;;;2.40;;
17662;SDS011;8950;56.892;15.090;2023-04-07T04:19:28;2.58;;;2.38;;
17662;SDS011;8950;56.892;15.090;2023-04-07T04:21:55;2.70;;;2.50;;
17662;SDS011;8950;56.892;15.090;2023-04-07T04:24:22;2.55;;;2.35;;
17662;SDS011;8950;56.892;15.090;2023-04-07T04:26:48;2.47;;;2.28;;
17662;SDS011;8950;56.892;15.090;2023-04-07T04:29:15;2.33;;;2.22;;
17662;SDS011;8950;56.892;15.090;2023-04-07T04:31:41;3.08;;;2.78;;
17662;SDS011;8950;56.892;15.090;2023-04-07T04:34:07;2.35;;;2.25;;
17662;SDS011;8950;56.892;15.090;2023-04-07T04:36:34;2.90;;;2.70;;
17662;SDS011;8950;56.892;15.090;2023-04-07T04:39:02;2.50;;;2.30;;
17662;SDS011;8950;56.892;15.090;2023-04-07T04:41:28;2.60;;;2.40;;
17662;SDS011;8950;56.892;15.090;2023-04-07T04:43:55;2.60;;;2.40;;
17662;SDS011;8950;56.892;15.090;2023-04-07T04:46:21;2.20;;;2.10;;
17662;SDS011;8950;56.892;15.090;2023-04-07T04:48:47;2.60;;;2.40;;
17662;SDS011;8950;56.892;15.090;2023-04-07T04:51:15;2.55;;;2.35;;
17662;SDS011;8950;56.892;15.090;2023-04-07T04:53:41;2.60;;;2.40;;
17662;SDS011;8950;56.892;15.090;2023-04-07T04:56:09;2.63;;;2.42;;
17662;SDS011;8950;56.892;15.090;2023-04-07T04:58:36;2.22;;;2.13;;
17662;SDS011;8950;56.892;15.090;2023-04-07T05:01:04;2.35;;;2.15;;
17662;SDS011;8950;56.892;15.090;2023-04-07T05:03:30;2.97;;;2.63;;
17662;SDS011;8950;56.892;15.090;2023-04-07T05:05:57;2.50;;;2.30;;
17662;SDS011;8950;56.892;15.090;2023-04-07T05:08:23;2.50;;;2.30;;
17662;SDS011;8950;56.892;15.090;2023-04-07T05:10:49;2.55;;;2.35;;
17662;SDS011;8950;56.892;15.090;2023-04-07T05:13:17;2.55;;;2.35;;
17662;SDS011;8950;56.892;15.090;2023-04-07T05:15:44;2.40;;;2.30;;
17662;SDS011;8950;56.892;15.090;2023-04-07T05:18:10;2.60;;;2.40;;
17662;SDS011;8950;56.892;15.090;2023-04-07T05:20:36;2.45;;;2.35;;
17662;SDS011;8950;56.892;15.090;2023-04-07T05:23:03;2.60;;;2.38;;
17662;SDS011;8950;56.892;15.090;2023-04-07T05:25:29;2.53;;;2.33;;
17662;SDS011;8950;56.892;15.090;2023-04-07T05:27:56;2.65;;;2.45;;
17662;SDS011;8950;56.892;15.090;2023-04-07T05:30:24;2.30;;;2.20;;
17662;SDS011;8950;56.892;15.090;2023-04-07T05:32:51;2.58;;;2.38;;
17662;SDS011;8950;56.892;15.090;2023-04-07T05:35:18;2.53;;;2.35;;
17662;SDS011;8950;56.892;15.090;2023-04-07T05:37:44;2.22;;;2.03;;
17662;SDS011;8950;56.892;15.090;2023-04-07T05:40:11;2.33;;;2.13;;
17662;SDS011;8950;56.892;15.090;2023-04-07T05:42:37;2.40;;;2.20;;
17662;SDS011;8950;56.892;15.090;2023-04-07T05:45:04;2.58;;;2.38;;
17662;SDS011;8950;56.892;15.090;2023-04-07T05:47:32;2.33;;;2.13;;
17662;SDS011;8950;56.892;15.090;2023-04-07T05:49:58;2.50;;;2.13;;
17662;SDS011;8950;56.892;15.090;2023-04-07T05:52:25;2.20;;;2.00;;
17662;SDS011;8950;56.892;15.090;2023-04-07T05:54:51;2.25;;;2.10;;
17662;SDS011;8950;56.892;15.090;2023-04-07T05:57:17;2.30;;;2.10;;
17662;SDS011;8950;56.892;15.090;2023-04-07T05:59:44;2.22;;;2.13;;
17662;SDS011;8950;56.892;15.090;2023-04-07T06:02:11;2.05;;;1.92;;
17662;SDS011;8950;56.892;15.090;2023-04-07T06:04:39;2.55;;;2.35;;
17662;SDS011;8950;56.892;15.090;2023-04-07T06:07:06;2.05;;;1.95;;
17662;SDS011;8950;56.892;15.090;2023-04-07T06:09:32;2.22;;;2.05;;
17662;SDS011;8950;56.892;15.090;2023-04-07T06:11:59;1.83;;;1.73;;
17662;SDS011;8950;56.892;15.090;2023-04-07T06:14:29;1.73;;;1.63;;
17662;SDS011;8950;56.892;15.090;2023-04-07T06:16:55;1.83;;;1.73;;
17662;SDS011;8950;56.892;15.090;2023-04-07T06:19:21;2.17;;;2.00;;
17662;SDS011;8950;56.892;15.090;2023-04-07T06:21:49;2.00;;;1.90;;
17662;SDS011;8950;56.892;15.090;2023-04-07T06:24:15;2.00;;;1.90;;
17662;SDS011;8950;56.892;15.090;2023-04-07T06:26:43;1.92;;;1.83;;
17662;SDS011;8950;56.892;15.090;2023-04-07T06:29:10;1.70;;;1.60;;
17662;SDS011;8950;56.892;15.090;2023-04-07T06:31:37;1.80;;;1.70;;
17662;SDS011;8950;56.892;15.090;2023-04-07T06:34:03;2.17;;;1.60;;
17662;SDS011;8950;56.892;15.090;2023-04-07T06:36:29;1.70;;;1.60;;
17662;SDS011;8950;56.892;15.090;2023-04-07T06:38:58;1.90;;;1.80;;
17662;SDS011;8950;56.892;15.090;2023-04-07T06:41:24;1.90;;;1.70;;
17662;SDS011;8950;56.892;15.090;2023-04-07T06:43:51;1.80;;;1.70;;
17662;SDS011;8950;56.892;15.090;2023-04-07T06:46:17;1.63;;;1.52;;
17662;SDS011;8950;56.892;15.090;2023-04-07T06:48:44;1.83;;;1.73;;
17662;SDS011;8950;56.892;15.090;2023-04-07T06:51:10;1.77;;;1.67;;
17662;SDS011;8950;56.892;15.090;2023-04-07T06:53:37;1.92;;;1.83;;
17662;SDS011;8950;56.892;15.090;2023-04-07T06:56:06;1.90;;;1.80;;
17662;SDS011;8950;56.892;15.090;2023-04-07T06:58:33;1.90;;;1.80;;
17662;SDS011;8950;56.892;15.090;2023-04-07T07:00:59;2.03;;;1.80;;
17662;SDS011;8950;56.892;15.090;2023-04-07T07:03:26;1.85;;;1.75;;
17662;SDS011;8950;56.892;15.090;2023-04-07T07:05:53;1.90;;;1.80;;
17662;SDS011;8950;56.892;15.090;2023-04-07T07:08:20;2.13;;;1.98;;
17662;SDS011;8950;56.892;15.090;2023-04-07T07:10:46;2.13;;;1.92;;
17662;SDS011;8950;56.892;15.090;2023-04-07T07:13:14;2.10;;;2.00;;
17662;SDS011;8950;56.892;15.090;2023-04-07T07:15:40;2.15;;;2.05;;
17662;SDS011;8950;56.892;15.090;2023-04-07T07:18:07;2.20;;;2.10;;
17662;SDS011;8950;56.892;15.090;2023-04-07T07:20:33;2.00;;;1.90;;
17662;SDS011;8950;56.892;15.090;2023-04-07T07:23:00;2.15;;;2.05;;
17662;SDS011;8950;56.892;15.090;2023-04-07T07:25:26;2.47;;;2.28;;
17662;SDS011;8950;56.892;15.090;2023-04-07T07:27:53;2.40;;;2.00;;
17662;SDS011;8950;56.892;15.090;2023-04-07T07:30:21;2.40;;;2.20;;
17662;SDS011;8950;56.892;15.090;2023-04-07T07:32:48;2.70;;;2.50;;
17662;SDS011;8950;56.892;15.090;2023-04-07T07:35:14;2.00;;;1.90;;
17662;SDS011;8950;56.892;15.090;2023-04-07T07:37:41;2.00;;;1.90;;
17662;SDS011;8950;56.892;15.090;2023-04-07T07:40:08;2.22;;;2.10;;
17662;SDS011;8950;56.892;15.090;2023-04-07T07:42:35;2.47;;;2.15;;
17662;SDS011;8950;56.892;15.090;2023-04-07T07:45:01;2.15;;;2.05;;
17662;SDS011;8950;56.892;15.090;2023-04-07T07:47:30;2.20;;;2.10;;
17662;SDS011;8950;56.892;15.090;2023-04-07T07:49:56;2.40;;;2.20;;
17662;SDS011;8950;56.892;15.090;2023-04-07T07:52:23;2.30;;;2.10;;
17662;SDS011;8950;56.892;15.090;2023-04-07T07:54:49;2.30;;;2.10;;
17662;SDS011;8950;56.892;15.090;2023-04-07T07:57:16;2.10;;;1.95;;
17662;SDS011;8950;56.892;15.090;2023-04-07T07:59:42;2.30;;;2.20;;
17662;SDS011;8950;56.892;15.090;2023-04-07T08:02:10;2.17;;;1.98;;
17662;SDS011;8950;56.892;15.090;2023-04-07T08:04:37;2.20;;;2.10;;
17662;SDS011;8950;56.892;15.090;2023-04-07T08:07:04;2.30;;;2.20;;
17662;SDS011;8950;56.892;15.090;2023-04-07T08:09:31;2.58;;;2.30;;
17662;SDS011;8950;56.892;15.090;2023-04-07T08:11:57;2.00;;;1.90;;
17662;SDS011;8950;56.892;15.090;2023-04-07T08:14:24;2.20;;;2.10;;
17662;SDS011;8950;56.892;15.090;2023-04-07T08:16:50;2.00;;;1.90;;
17662;SDS011;8950;56.892;15.090;2023-04-07T08:19:17;2.00;;;1.80;;
17662;SDS011;8950;56.892;15.090;2023-04-07T08:21:45;2.00;;;1.90;;
17662;SDS011;8950;56.892;15.090;2023-04-07T08:24:11;2.20;;;2.10;;
17662;SDS011;8950;56.892;15.090;2023-04-07T08:26:38;2.10;;;2.00;;
17662;SDS011;8950;56.892;15.090;2023-04-07T08:29:04;2.03;;;1.92;;
17662;SDS011;8950;56.892;15.090;2023-04-07T08:31:31;1.92;;;1.83;;
17662;SDS011;8950;56.892;15.090;2023-04-07T08:33:57;1.92;;;1.83;;
17662;SDS011;8950;56.892;15.090;2023-04-07T08:36:24;1.90;;;1.80;;
17662;SDS011;8950;56.892;15.090;2023-04-07T08:38:52;2.15;;;1.95;;
17662;SDS011;8950;56.892;15.090;2023-04-07T08:41:19;1.88;;;1.75;;
17662;SDS011;8950;56.892;15.090;2023-04-07T08:43:47;2.00;;;1.90;;
17662;SDS011;8950;56.892;15.090;2023-04-07T08:46:14;2.22;;;1.92;;
17662;SDS011;8950;56.892;15.090;2023-04-07T08:48:41;1.90;;;1.80;;
17662;SDS011;8950;56.892;15.090;2023-04-07T08:51:09;1.95;;;1.85;;
17662;SDS011;8950;56.892;15.090;2023-04-07T08:53:39;1.90;;;1.80;;
17662;SDS011;8950;56.892;15.090;2023-04-07T08:56:08;2.00;;;1.90;;
17662;SDS011;8950;56.892;15.090;2023-04-07T08:58:36;2.08;;;1.98;;
17662;SDS011;8950;56.892;15.090;2023-04-07T09:01:03;1.85;;;1.70;;
17662;SDS011;8950;56.892;15.090;2023-04-07T09:03:31;2.20;;;2.00;;
17662;SDS011;8950;56.892;15.090;2023-04-07T09:05:58;1.80;;;1.70;;
17662;SDS011;8950;56.892;15.090;2023-04-07T09:08:25;1.98;;;1.85;;
17662;SDS011;8950;56.892;15.090;2023-04-07T09:10:51;1.75;;;1.60;;
17662;SDS011;8950;56.892;15.090;2023-04-07T09:13:19;1.80;;;1.70;;
17662;SDS011;8950;56.892;15.090;2023-04-07T09:15:46;1.90;;;1.80;;
17662;SDS011;8950;56.892;15.090;2023-04-07T09:18:12;2.28;;;1.73;;
17662;SDS011;8950;56.892;15.090;2023-04-07T09:20:56;1.90;;;1.80;;
17662;SDS011;8950;56.892;15.090;2023-04-07T09:23:26;1.75;;;1.65;;
17662;SDS011;8950;56.892;15.090;2023-04-07T09:25:53;1.80;;;1.70;;
17662;SDS011;8950;56.892;15.090;2023-04-07T09:28:21;1.83;;;1.73;;
17662;SDS011;8950;56.892;15.090;2023-04-07T09:30:51;1.80;;;1.70;;
17662;SDS011;8950;56.892;15.090;2023-04-07T09:33:18;2.15;;;1.95;;
17662;SDS011;8950;56.892;15.090;2023-04-07T09:35:51;2.00;;;1.90;;
17662;SDS011;8950;56.892;15.090;2023-04-07T09:38:18;1.80;;;1.70;;
17662;SDS011;8950;56.892;15.090;2023-04-07T09:40:45;1.83;;;1.73;;
17662;SDS011;8950;56.892;15.090;2023-04-07T09:43:14;1.77;;;1.67;;
17662;SDS011;8950;56.892;15.090;2023-04-07T09:45:42;1.90;;;1.80;;
17662;SDS011;8950;56.892;15.090;2023-04-07T09:48:17;1.60;;;1.50;;
17662;SDS011;8950;56.892;15.090;2023-04-07T09:50:44;2.17;;;1.73;;
17662;SDS011;8950;56.892;15.090;2023-04-07T09:53:13;1.70;;;1.60;;
17662;SDS011;8950;56.892;15.090;2023-04-07T09:55:41;1.83;;;1.73;;
17662;SDS011;8950;56.892;15.090;2023-04-07T09:58:07;1.70;;;1.60;;
17662;SDS011;8950;56.892;15.090;2023-04-07T10:00:37;1.73;;;1.63;;
17662;SDS011;8950;56.892;15.090;2023-04-07T10:03:05;1.95;;;1.75;;
17662;SDS011;8950;56.892;15.090;2023-04-07T10:05:32;1.52;;;1.42;;
17662;SDS011;8950;56.892;15.090;2023-04-07T10:07:59;1.80;;;1.70;;
17662;SDS011;8950;56.892;15.090;2023-04-07T10:10:26;1.73;;;1.63;;
17662;SDS011;8950;56.892;15.090;2023-04-07T10:12:52;2.10;;;1.70;;
17662;SDS011;8950;56.892;15.090;2023-04-07T10:15:19;1.70;;;1.60;;
17662;SDS011;8950;56.892;15.090;2023-04-07T10:17:47;1.70;;;1.60;;
17662;SDS011;8950;56.892;15.090;2023-04-07T10:20:16;1.60;;;1.50;;
17662;SDS011;8950;56.892;15.090;2023-04-07T10:22:44;1.85;;;1.70;;
17662;SDS011;8950;56.892;15.090;2023-04-07T10:25:13;1.83;;;1.73;;
17662;SDS011;8950;56.892;15.090;2023-04-07T10:27:42;1.80;;;1.70;;
17662;SDS011;8950;56.892;15.090;2023-04-07T10:30:14;1.60;;;1.50;;
17662;SDS011;8950;56.892;15.090;2023-04-07T10:32:45;1.80;;;1.70;;
17662;SDS011;8950;56.892;15.090;2023-04-07T10:35:13;1.70;;;1.60;;
17662;SDS011;8950;56.892;15.090;2023-04-07T10:37:41;1.75;;;1.65;;
17662;SDS011;8950;56.892;15.090;2023-04-07T10:40:27;1.52;;;1.42;;
17662;SDS011;8950;56.892;15.090;2023-04-07T10:42:54;1.67;;;1.58;;
17662;SDS011;8950;56.892;15.090;2023-04-07T10:48:09;2.10;;;1.80;;
17662;SDS011;8950;56.892;15.090;2023-04-07T10:50:37;1.75;;;1.65;;
17662;SDS011;8950;56.892;15.090;2023-04-07T10:53:05;1.52;;;1.42;;
17662;SDS011;8950;56.892;15.090;2023-04-07T10:55:34;1.60;;;1.50;;
17662;SDS011;8950;56.892;15.090;2023-04-07T10:58:17;1.70;;;1.60;;
17662;SDS011;8950;56.892;15.090;2023-04-07T11:03:25;1.50;;;1.40;;
17662;SDS011;8950;56.892;15.090;2023-04-07T11:05:52;1.70;;;1.60;;
17662;SDS011;8950;56.892;15.090;2023-04-07T11:08:32;1.50;;;1.40;;
17662;SDS011;8950;56.892;15.090;2023-04-07T11:10:59;1.60;;;1.50;;
17662;SDS011;8950;56.892;15.090;2023-04-07T11:13:25;1.60;;;1.50;;
17662;SDS011;8950;56.892;15.090;2023-04-07T11:15:51;1.70;;;1.60;;
17662;SDS011;8950;56.892;15.090;2023-04-07T11:18:18;1.70;;;1.60;;
17662;SDS011;8950;56.892;15.090;2023-04-07T11:20:46;1.60;;;1.50;;
17662;SDS011;8950;56.892;15.090;2023-04-07T11:23:13;1.70;;;1.60;;
17662;SDS011;8950;56.892;15.090;2023-04-07T11:25:42;1.70;;;1.60;;
17662;SDS011;8950;56.892;15.090;2023-04-07T11:28:10;1.50;;;1.40;;
17662;SDS011;8950;56.892;15.090;2023-04-07T11:30:37;1.90;;;1.80;;
17662;SDS011;8950;56.892;15.090;2023-04-07T11:33:04;1.60;;;1.50;;
17662;SDS011;8950;56.892;15.090;2023-04-07T11:35:31;1.80;;;1.70;;
17662;SDS011;8950;56.892;15.090;2023-04-07T11:37:57;1.80;;;1.70;;
17662;SDS011;8950;56.892;15.090;2023-04-07T11:40:31;1.60;;;1.50;;
17662;SDS011;8950;56.892;15.090;2023-04-07T11:43:00;1.60;;;1.50;;
17662;SDS011;8950;56.892;15.090;2023-04-07T11:45:27;1.73;;;1.63;;
17662;SDS011;8950;56.892;15.090;2023-04-07T11:47:53;1.60;;;1.50;;
17662;SDS011;8950;56.892;15.090;2023-04-07T11:53:01;1.60;;;1.50;;
17662;SDS011;8950;56.892;15.090;2023-04-07T11:55:28;1.70;;;1.60;;
17662;SDS011;8950;56.892;15.090;2023-04-07T11:57:54;1.58;;;1.48;;
17662;SDS011;8950;56.892;15.090;2023-04-07T12:00:23;1.80;;;1.70;;
17662;SDS011;8950;56.892;15.090;2023-04-07T12:02:49;1.50;;;1.40;;
17662;SDS011;8950;56.892;15.090;2023-04-07T12:05:16;2.33;;;1.50;;
17662;SDS011;8950;56.892;15.090;2023-04-07T12:07:51;1.48;;;1.38;;
17662;SDS011;8950;56.892;15.090;2023-04-07T12:10:18;1.50;;;1.40;;
17662;SDS011;8950;56.892;15.090;2023-04-07T12:12:45;1.58;;;1.48;;
17662;SDS011;8950;56.892;15.090;2023-04-07T12:15:11;1.60;;;1.50;;
17662;SDS011;8950;56.892;15.090;2023-04-07T12:17:42;1.65;;;1.55;;
17662;SDS011;8950;56.892;15.090;2023-04-07T12:20:09;1.58;;;1.48;;
17662;SDS011;8950;56.892;15.090;2023-04-07T12:22:36;1.60;;;1.50;;
17662;SDS011;8950;56.892;15.090;2023-04-07T12:25:02;1.60;;;1.50;;
17662;SDS011;8950;56.892;15.090;2023-04-07T12:27:29;1.65;;;1.55;;
17662;SDS011;8950;56.892;15.090;2023-04-07T12:29:55;1.88;;;1.50;;
17662;SDS011;8950;56.892;15.090;2023-04-07T12:32:22;1.45;;;1.35;;
17662;SDS011;8950;56.892;15.090;2023-04-07T12:34:50;1.65;;;1.55;;
17662;SDS011;8950;56.892;15.090;2023-04-07T12:37:17;1.50;;;1.40;;
17662;SDS011;8950;56.892;15.090;2023-04-07T12:39:43;1.60;;;1.50;;
17662;SDS011;8950;56.892;15.090;2023-04-07T12:42:10;1.50;;;1.40;;
17662;SDS011;8950;56.892;15.090;2023-04-07T12:44:37;1.63;;;1.52;;
17662;SDS011;8950;56.892;15.090;2023-04-07T12:47:03;1.77;;;1.67;;
17662;SDS011;8950;56.892;15.090;2023-04-07T12:49:30;1.65;;;1.55;;
17662;SDS011;8950;56.892;15.090;2023-04-07T12:51:58;1.60;;;1.50;;
17662;SDS011;8950;56.892;15.090;2023-04-07T12:54:24;1.70;;;1.60;;
17662;SDS011;8950;56.892;15.090;2023-04-07T12:56:52;1.60;;;1.50;;
17662;SDS011;8950;56.892;15.090;2023-04-07T12:59:19;1.65;;;1.55;;
17662;SDS011;8950;56.892;15.090;2023-04-07T13:01:46;1.80;;;1.70;;
17662;SDS011;8950;56.892;15.090;2023-04-07T13:04:12;1.70;;;1.60;;
17662;SDS011;8950;56.892;15.090;2023-04-07T13:06:38;1.58;;;1.48;;
17662;SDS011;8950;56.892;15.090;2023-04-07T13:09:06;1.70;;;1.60;;
17662;SDS011;8950;56.892;15.090;2023-04-07T13:11:33;1.73;;;1.60;;
17662;SDS011;8950;56.892;15.090;2023-04-07T13:14:00;1.70;;;1.60;;
17662;SDS011;8950;56.892;15.090;2023-04-07T13:16:26;1.70;;;1.60;;
17662;SDS011;8950;56.892;15.090;2023-04-07T13:18:53;2.05;;;1.95;;
17662;SDS011;8950;56.892;15.090;2023-04-07T13:21:19;2.00;;;1.90;;
17662;SDS011;8950;56.892;15.090;2023-04-07T13:23:47;4.82;;;2.10;;
17662;SDS011;8950;56.892;15.090;2023-04-07T13:26:16;2.00;;;1.90;;
17662;SDS011;8950;56.892;15.090;2023-04-07T13:28:43;1.83;;;1.73;;
17662;SDS011;8950;56.892;15.090;2023-04-07T13:31:10;2.20;;;2.10;;
17662;SDS011;8950;56.892;15.090;2023-04-07T13:33:39;2.10;;;2.00;;
17662;SDS011;8950;56.892;15.090;2023-04-07T13:36:06;2.03;;;1.92;;
17662;SDS011;8950;56.892;15.090;2023-04-07T13:38:32;2.10;;;2.00;;
17662;SDS011;8950;56.892;15.090;2023-04-07T13:40:59;1.90;;;1.80;;
17662;SDS011;8950;56.892;15.090;2023-04-07T13:43:27;2.00;;;1.90;;
17662;SDS011;8950;56.892;15.090;2023-04-07T13:45:53;2.13;;;2.03;;
17662;SDS011;8950;56.892;15.090;2023-04-07T13:48:20;2.25;;;2.13;;
17662;SDS011;8950;56.892;15.090;2023-04-07T13:50:47;2.22;;;2.08;;
17662;SDS011;8950;56.892;15.090;2023-04-07T13:53:13;1.98;;;1.88;;
17662;SDS011;8950;56.892;15.090;2023-04-07T13:55:39;2.22;;;2.10;;
17662;SDS011;8950;56.892;15.090;2023-04-07T13:58:06;2.00;;;1.90;;
17662;SDS011;8950;56.892;15.090;2023-04-07T14:00:34;2.35;;;2.15;;
17662;SDS011;8950;56.892;15.090;2023-04-07T14:03:02;1.88;;;1.77;;
17662;SDS011;8950;56.892;15.090;2023-04-07T14:05:29;2.10;;;2.00;;
17662;SDS011;8950;56.892;15.090;2023-04-07T14:07:55;2.13;;;2.03;;
17662;SDS011;8950;56.892;15.090;2023-04-07T14:10:22;2.08;;;1.98;;
17662;SDS011;8950;56.892;15.090;2023-04-07T14:12:48;2.30;;;2.10;;
17662;SDS011;8950;56.892;15.090;2023-04-07T14:15:15;2.15;;;2.05;;
17662;SDS011;8950;56.892;15.090;2023-04-07T14:17:42;2.28;;;2.17;;
17662;SDS011;8950;56.892;15.090;2023-04-07T14:20:09;1.92;;;1.83;;
17662;SDS011;8950;56.892;15.090;2023-04-07T14:22:36;2.20;;;2.10;;
17662;SDS011;8950;56.892;15.090;2023-04-07T14:25:02;1.85;;;1.75;;
17662;SDS011;8950;56.892;15.090;2023-04-07T14:27:29;2.00;;;1.90;;
17662;SDS011;8950;56.892;15.090;2023-04-07T14:29:56;2.60;;;2.40;;
17662;SDS011;8950;56.892;15.090;2023-04-07T14:32:24;2.35;;;2.20;;
17662;SDS011;8950;56.892;15.090;2023-04-07T14:34:54;2.33;;;1.85;;
17662;SDS011;8950;56.892;15.090;2023-04-07T14:37:23;2.50;;;2.28;;
17662;SDS011;8950;56.892;15.090;2023-04-07T14:39:50;2.38;;;2.17;;
17662;SDS011;8950;56.892;15.090;2023-04-07T14:42:17;2.20;;;2.10;;
17662;SDS011;8950;56.892;15.090;2023-04-07T14:44:43;2.10;;;2.00;;
17662;SDS011;8950;56.892;15.090;2023-04-07T14:47:11;2.60;;;2.40;;
17662;SDS011;8950;56.892;15.090;2023-04-07T14:49:37;2.90;;;2.70;;
17662;SDS011;8950;56.892;15.090;2023-04-07T14:52:05;4.15;;;2.50;;
17662;SDS011;8950;56.892;15.090;2023-04-07T14:54:32;2.40;;;2.30;;
17662;SDS011;8950;56.892;15.090;2023-04-07T14:56:59;2.53;;;2.33;;
17662;SDS011;8950;56.892;15.090;2023-04-07T14:59:25;2.60;;;2.40;;